This is the latest recevied weather packets stored in our database for station/object VO2AGO. If no packets are shown the sender has not sent any weather packets the latest 10 day(s).
| Time | Temp. | Humidity | Pressure | Rain* | Wind** | Luminosity | Snow |
|---|---|---|---|---|---|---|---|
| 1778000749 | 7.22° C | 80% | 100 hPa | 0 mm | 0 m/s | 314 W/m² | - |
| 1778000300 | 7.78° C | 73% | 100 hPa | 0 mm | 0 m/s | 264 W/m² | - |
| 1777999850 | 8.33° C | 69% | 100 hPa | 0 mm | 0 m/s | 266 W/m² | - |
| 1777999400 | 8.33° C | 68% | 100 hPa | 0 mm | 0 m/s | 310 W/m² | - |
| 1777998950 | 8.33° C | 69% | 100 hPa | 0 mm | 0 m/s | 325 W/m² | - |
| 1777998500 | 8.89° C | 65% | 100 hPa | 0 mm | 0 m/s | 345 W/m² | - |
| 1777998049 | 9.44° C | 64% | 100 hPa | 0 mm | 0 m/s | 559 W/m² | - |
| 1777997600 | 8.89° C | 69% | 100 hPa | 0 mm | 0 m/s | 734 W/m² | - |
| 1777997149 | 8.33° C | 76% | 100 hPa | 0 mm | 0 m/s | 618 W/m² | - |
| 1777996699 | 7.78° C | 75% | 100 hPa | 0 mm | 0 m/s | 622 W/m² | - |
| 1777996250 | 10° C | 56% | 100 hPa | 0 mm | 0 m/s | 799 W/m² | - |
| 1777995800 | 11.11° C | 52% | 100 hPa | 0 mm | 0 m/s | 1133 W/m² | - |
| 1777995350 | 10.56° C | 51% | 100 hPa | 0 mm | 0 m/s | 1788 W/m² | - |
| 1777994900 | 12.22° C | 48% | 100 hPa | 0 mm | 0 m/s | 1708 W/m² | - |
| 1777994449 | 12.78° C | 52% | 100 hPa | 0 mm | 0 m/s | 1938 W/m² | - |
| 1777993999 | 12.22° C | 52% | 100 hPa | 0 mm | 0 m/s | 1976 W/m² | - |
| 1777993549 | 10.56° C | - | - | - | 0 m/s | 1121 W/m² | - |
| 1777993099 | 10.56° C | 60% | 100.1 hPa | 0 mm | 0 m/s | 1440 W/m² | - |
| 1777992650 | 10° C | 60% | 100.1 hPa | 0 mm | 0 m/s | 1717 W/m² | - |
| 1777992200 | 10° C | 57% | 100.1 hPa | 0 mm | 0 m/s | 1620 W/m² | - |
| 1777991301 | 13.33° C | - | - | - | 0 m/s | 1117 W/m² | - |
| 1777990849 | 11.11° C | - | - | - | 0 m/s | 1116 W/m² | - |
| 1777990399 | 11.11° C | 58% | 100.1 hPa | 0 mm | 0 m/s | 1923 W/m² | - |
| 1777989949 | 10° C | - | - | - | 0 m/s | 1107 W/m² | - |
| 1777989500 | 9.44° C | - | - | - | 0 m/s | 1109 W/m² | - |
* Rain latest hour (hover to see other rain measurements)
** Current wind speed in m/s (hover to see current wind gust speed)